Logo AVAMET
Benvolgut visitant, si us plau, ingressa Recuperar contrasenya

Vilallonga nord

Dades diàries. Acumulats / Últims 30 dies disponibles

Data Temperatura (°C) Humitat rel. (%) Pressió rel. (hPa) Vent (km/h) Precipitació
Mínima Mitjana Màxima Amplitud
tèrmica
Mínima Mitjana Màxima Mínima Mitjana Màxima Predom. Mitjana Ràfega
màxima
Total
(mm)
Índex-n
Mínima Mitjana Màxima Mínima Mitjana Màxima n
0 a 1
P0 max
mm 5'
Dades mensuals acumulades fins l'últim dia disponible
11/2019 10,2 15,6 22,0 18,2 16,5 21,4 26,8 16,6 26 49 77 1.002 1.012 1.021   9,3 56,3 1,0
Dades anuals acumulades fins l'últim dia disponible
2019 2,1 15,5 26,9 19,8 11,7 24,7 40,2 38,1 14 62 98 994 1.017 1.036   4,0 66,0 608,5
Últims 30 dies disponibles
11-11-2019 10,2     13,5     17,0 6,8 38 48 60 1.011 1.014 1.015 O 7,2 33,8 0,0
10-11-2019 10,9     13,8     16,8 5,9 38 53 77 1.011 1.013 1.014 O 9,5 43,5 0,6
09-11-2019 12,2     15,1     18,7 6,5 32 44 68 1.013 1.018 1.020 O 8,9 37,0 0,2
08-11-2019 11,7     14,2     16,5 4,8 36 44 57 1.010 1.013 1.018 O 11,1 51,5 0,0
07-11-2019 14,9     17,5     21,2 6,3 26 49 60 1.008 1.010 1.014 OSO 7,2 35,4 0,0
06-11-2019 14,4     17,0     20,9 6,5 34 46 54 1.012 1.013 1.015 OSO 7,3 30,6 0,0
05-11-2019 16,3     18,3     21,9 5,6 38 48 57 1.006 1.009 1.013 O 11,0 53,1 0,0
04-11-2019 19,4     21,7     24,9 5,5 41 50 60 1.006 1.009 1.012 OSO 12,2 56,3 0,2
03-11-2019 19,9     21,7     24,3 4,4 44 49 60 1.002 1.005 1.011 O 12,8 56,3 0,0
02-11-2019 22,0     23,6     26,7 4,7 40 52 60 1.004 1.009 1.014 OSO 9,4 40,2 0,0
01-11-2019 19,3     23,4     26,8 7,5 49 59 73 1.014 1.017 1.021 SO 5,5 35,4 0,0
31-10-2019 20,7     23,1     26,3 5,6 46 57 65 1.019 1.020 1.021 OSO 5,3 29,0 0,0
30-10-2019 15,7     20,6     25,1 9,4 52 66 81 1.019 1.020 1.022 SSO 3,5 22,5 0,0
29-10-2019 15,9     19,8     26,3 10,4 45 72 85 1.015 1.017 1.020 SE 1,6 20,9 0,0
28-10-2019 13,8     17,5     22,4 8,6 63 81 91 1.016 1.018 1.021 ESE 0,6 12,9 0,0
27-10-2019 14,1     17,5     21,8 7,7 69 83 91 1.020 1.022 1.023 ENE 1,6 17,7 0,0
26-10-2019 12,8     17,3     22,7 9,9 49 72 86 1.020 1.022 1.023 ESE 1,4 14,5 0,0
25-10-2019 14,0     18,3     23,9 9,9 40 60 75 1.021 1.022 1.023 SSE 3,6 24,1 0,0
24-10-2019 12,3     16,9     21,1 8,8 45 58 73 1.012 1.016 1.022 OSO 6,3 32,2 0,0
23-10-2019 12,4     15,6     20,2 7,8 42 62 87 1.006 1.008 1.012 SSO 5,4 41,8 0,0
22-10-2019 13,6     14,7     16,2 2,6 73 86 94 1.006 1.011 1.018 S 3,1 29,0 61,0 0,27 1,90
21-10-2019 14,0     15,6     18,2 4,2 54 69 85 1.016 1.017 1.019 ESE 1,2 19,3 0,0
20-10-2019 15,8     19,7     22,4 6,6 44 60 72 1.005 1.009 1.016 SSO 3,8 41,8 1,6
19-10-2019 18,2     22,5     27,3 9,1 42 52 61 1.006 1.010 1.013 S 3,4 20,9 0,0
18-10-2019 19,1     22,9     28,8 9,7 37 53 63 1.013 1.016 1.018 SSO 2,5 20,9 0,0
17-10-2019 15,4     21,6     28,3 12,9 25 42 56 1.015 1.017 1.019 SO 2,5 20,9 0,0
16-10-2019 13,5     18,9     26,0 12,5 30 47 57 1.016 1.019 1.021 SSO 4,5 25,7 0,0
15-10-2019 16,0     19,2     24,4 8,4 28 45 58 1.015 1.018 1.021 OSO 8,6 45,1 0,0
14-10-2019 20,1     21,7     24,6 4,5 52 83 91 1.011 1.014 1.017 SE 2,0 30,6 3,2 0,20
13-10-2019 19,0     22,3     25,7 6,7 67 82 90 1.016 1.017 1.018 ESE 2,7 16,1 0,0
Últims 13 mesos disponibles
10/2019 12,3 16,7 20,8 20,6 16,2 25,3 33,6 21,3 42 65 86 1.008 1.017 1.022 SSO 2,8 45,1 65,8
09/2019 14,7 20,2 23,0 23,8 22,3 28,0 35,0 20,3 47 73 94 1.010 1.017 1.024 ENE 2,8 66,0 138,0
08/2019 19,2 22,7 26,9 27,2 27,4 32,6 40,2 21,0 34 66 79 1.010 1.015 1.020 SE 3,7 41,8 58,4
07/2019 21,2 23,1 26,8 27,8 28,7 32,8 38,7 17,5 38 61 77 1.005 1.014 1.021 E 4,4 61,2 0,8
06/2019 13,5 18,4 22,4 23,6 21,6 29,1 38,8 25,3 32 59 79 1.009 1.015 1.022 ESE 3,9 43,5 0,2
05/2019 9,7 15,2 22,7 19,7 18,7 24,8 32,3 22,6 46 63 79 1.005 1.015 1.024 E 3,7 51,5 10,2
04/2019 9,4 12,4 16,9 16,0 13,7 20,1 29,6 20,2 35 66 96 1.000 1.013 1.025 ENE 5,2 49,9 221,5
03/2019 6,7 10,1 17,2 14,9 13,4 20,2 28,8 22,1 33 56 91 1.010 1.023 1.030 SE 3,3 48,3 102,2
02/2019 4,9 8,2 11,8 12,5 12,7 17,8 24,5 19,6 35 60 82 996 1.025 1.034 ESE 3,9 62,8 0,4
01/2019 2,1 7,4 14,2 11,4 11,7 16,8 20,9 18,8 37 57 82 1.003 1.019 1.031 SSE 4,7 59,5 10,0
12/2018 5,8 9,6 13,6 13,6 13,7 19,1 25,6 19,8 47 65 90 1.010 1.026 1.031 SSE 3,1 61,2 21,2
11/2018 6,8 12,1 15,8 14,9 14,1 18,5 23,3 16,5 46 71 96 1.001 1.016 1.024 S 3,4 64,4 257,2
10/2018 9,0 15,3 19,3 18,6 14,7 22,8 29,3 20,3 43 71 92 1.000 1.015 1.026 2,9 54,7 117,8
Tots els anys disponibles
Temperatura (°C)
Humitat relativa (%)
Velocitat del vent i ràfega màxima (km/h)
Direcció del vent (°)
Pressió (hPa)
Precipitació (mm)
Nota sobre les dades: s'avisa a l'usuari de la provisionalitat i no oficialitat d'aquestes dades
Logo AVAMET blanc
Web allotjada a Sollutia
Llicència de Creative CommonsLa web d'AVAMET i els seus continguts estan subjectes a una llicència de
Reconeixement - No Comercial - Compartir igual
Últimes estacions: Xàbia - Alt de la Granadella (Soci), Villena - Sierra de Salinas (Soci), Sueca - Centre (Inforatge), Xàbia - La Plana (Soci), Banyeres de Mariola - Molí Sol (Soci), Villena - Villa Ventín (Soci), Benissa - Convent (Soci), - - -